Saturday, August 29, 2015, 2:03 AM EDT

KOFP, Hanover County Municipal

Location: Ashland, VA, United States Lat: 37.7
Local Time: 2:03 AM EDT ( 6:03 GMT) Lon: -77.433
Time Zone: US/Eastern Elev: 203 ft

Show me the last for .
Show Decoded

2015-08-29 00:54 METAR KOFP 290454Z AUTO 00000KT 10SM FEW080 17/16 A3022 RMK AO2 SLP233 T01720156
                 402940133 =
2015-08-28 23:54 METAR KOFP 290354Z AUTO 00000KT 10SM CLR 18/16 A3022 RMK AO2 SLP232 T01780161 =
2015-08-28 22:54 METAR KOFP 290254Z AUTO 00000KT 10SM CLR 18/17 A3021 RMK AO2 SLP230 T01830167
                 51020 =
2015-08-28 20:54 METAR KOFP 290054Z AUTO 12003KT 10SM CLR 22/17 A3019 RMK AO2 SLP222 T02170167 =
2015-08-28 19:54 METAR KOFP 282354Z AUTO 00000KT 10SM CLR 22/18 A3016 RMK AO2 SLP209 T02170178
                 10294 20217 56001 =
2015-08-28 18:54 METAR KOFP 282254Z AUTO VRB04KT 10SM CLR 26/17 A3015 RMK AO2 SLP209 T02560167 =
2015-08-28 17:54 METAR KOFP 282154Z AUTO 09004KT 10SM CLR 28/16 A3016 RMK AO2 SLP210 T02780161 =
2015-08-28 16:54 METAR KOFP 282054Z AUTO 00000KT 10SM CLR 29/14 A3016 RMK AO2 SLP211 T02890139
                 56016 =
2015-08-28 15:54 METAR KOFP 281954Z AUTO 00000KT 10SM FEW060 BKN080 29/15 A3017 RMK AO2 SLP214
                 T02890150 =
2015-08-28 14:54 METAR KOFP 281854Z AUTO 00000KT 10SM CLR 28/14 A3019 RMK AO2 SLP221 T02780144 =
2015-08-28 13:54 METAR KOFP 281754Z AUTO 35004KT 10SM SCT060 28/15 A3021 RMK AO2 SLP227 T02780150
                 10278 20167 58011 =
2015-08-28 12:54 METAR KOFP 281654Z AUTO VRB03KT 10SM CLR 27/14 A3022 RMK AO2 SLP230 T02670139 =
2015-08-28 11:54 METAR KOFP 281554Z AUTO 28004KT 10SM CLR 26/15 A3023 RMK AO2 SLP236 T02610150 =
2015-08-28 09:54 METAR KOFP 281354Z AUTO 02004KT 10SM CLR 23/17 A3023 RMK AO2 SLP235 T02330167 =
2015-08-28 08:54 METAR KOFP 281254Z AUTO 00000KT 8SM FEW060 21/17 A3022 RMK AO2 SLP231 T02060167
                 =
2015-08-28 07:54 METAR KOFP 281154Z AUTO 00000KT 4SM BR CLR 17/15 A3020 RMK AO2 SLP225 T01670150
                 10167 20133 53013 =
2015-08-28 06:54 METAR KOFP 281054Z AUTO 00000KT 3SM BR CLR 14/14 A3018 RMK AO2 SLP219 T01440139
                 =
2015-08-28 05:54 METAR KOFP 280954Z AUTO 00000KT 5SM BR CLR 14/14 A3017 RMK AO2 SLP216 T01440139
                 =
2015-08-28 03:54 METAR KOFP 280754Z AUTO 00000KT 5SM BR CLR 14/14 A3016 RMK AO2 SLP210 T01440139
                 =
2015-08-28 02:54 METAR KOFP 280654Z AUTO 00000KT 6SM BR CLR 15/14 A3016 RMK AO2 SLP210 T01500144
                 =

Support USWX by starting your Amazon purchase here.